createdAt,value
2022-08-19T00:01:30.443Z,22.34
2022-08-19T00:04:00.015Z,22.33
2022-08-19T00:06:27.813Z,22.34
2022-08-19T00:08:54.845Z,22.34
2022-08-19T00:11:25.375Z,22.31
2022-08-19T00:13:53.381Z,22.29
2022-08-19T00:16:26.215Z,22.27
2022-08-19T00:18:54.672Z,22.26
2022-08-19T00:21:21.314Z,22.22
2022-08-19T00:23:47.966Z,22.22
2022-08-19T00:26:15.041Z,22.20
2022-08-19T00:28:42.151Z,22.19
2022-08-19T00:31:10.612Z,22.18
2022-08-19T00:33:37.279Z,22.20
2022-08-19T00:36:07.423Z,22.20
2022-08-19T00:38:38.416Z,22.21
2022-08-19T00:41:08.794Z,22.21
2022-08-19T00:43:35.464Z,22.23
2022-08-19T00:46:05.522Z,22.24
2022-08-19T00:48:33.642Z,22.26
2022-08-19T00:51:01.552Z,22.28
2022-08-19T00:53:30.672Z,22.28
2022-08-19T00:56:00.957Z,22.27
2022-08-19T00:58:33.514Z,22.28
2022-08-19T01:01:01.834Z,22.30
2022-08-19T01:03:28.754Z,22.33
2022-08-19T01:06:15.599Z,22.31
2022-08-19T01:08:46.715Z,22.35
2022-08-19T01:11:16.840Z,22.36
2022-08-19T01:13:45.604Z,22.35
2022-08-19T01:16:19.797Z,22.32
2022-08-19T01:18:46.653Z,22.30
2022-08-19T01:21:36.036Z,22.27
2022-08-19T01:24:02.772Z,22.27
2022-08-19T01:26:29.432Z,22.25
2022-08-19T01:29:00.864Z,22.24
2022-08-19T01:31:32.906Z,22.24
2022-08-19T01:34:00.712Z,22.24
2022-08-19T01:36:42.872Z,22.23
2022-08-19T01:39:13.459Z,22.19
2022-08-19T01:41:40.325Z,22.17
2022-08-19T01:44:17.744Z,22.13
2022-08-19T01:46:48.098Z,22.07
2022-08-19T01:49:15.437Z,22.05
2022-08-19T01:51:42.066Z,22.02
2022-08-19T01:54:10.847Z,21.99
2022-08-19T01:56:37.632Z,21.96
2022-08-19T01:59:11.610Z,21.92
2022-08-19T02:01:38.237Z,21.87
2022-08-19T02:04:04.791Z,21.84
2022-08-19T02:06:31.351Z,21.86
2022-08-19T02:08:58.555Z,21.83
2022-08-19T02:11:32.315Z,21.82
2022-08-19T02:13:59.930Z,21.82
2022-08-19T02:16:26.473Z,21.81
2022-08-19T02:18:53.102Z,21.79
2022-08-19T02:21:21.893Z,21.78
2022-08-19T02:23:49.545Z,21.77
2022-08-19T02:26:17.537Z,21.75
2022-08-19T02:28:44.367Z,21.76
2022-08-19T02:31:17.000Z,21.73
2022-08-19T02:33:43.971Z,21.73
2022-08-19T02:36:12.806Z,21.72
2022-08-19T02:38:42.941Z,21.73
2022-08-19T02:41:34.458Z,21.67
2022-08-19T02:44:30.636Z,21.67
2022-08-19T02:46:51.791Z,21.65
2022-08-19T02:49:19.962Z,21.64
2022-08-19T02:51:47.618Z,21.63
2022-08-19T02:54:14.555Z,21.63
2022-08-19T02:56:42.782Z,21.63
2022-08-19T02:59:11.194Z,21.63
2022-08-19T03:01:41.256Z,21.60
2022-08-19T03:04:09.845Z,21.61
2022-08-19T03:06:38.870Z,21.59
2022-08-19T03:09:05.559Z,21.58
2022-08-19T03:11:33.906Z,21.57
2022-08-19T03:14:02.811Z,21.52
2022-08-19T03:16:33.179Z,21.48
2022-08-19T03:19:01.167Z,21.45
2022-08-19T03:21:31.594Z,21.44
2022-08-19T03:24:08.706Z,21.43
2022-08-19T03:26:38.921Z,21.42
2022-08-19T03:29:05.955Z,21.41
2022-08-19T03:31:44.462Z,21.40
2022-08-19T03:34:22.073Z,21.37
2022-08-19T03:36:49.386Z,21.33
2022-08-19T03:39:16.767Z,21.28
2022-08-19T03:41:46.651Z,21.26
2022-08-19T03:44:18.137Z,21.17
2022-08-19T03:46:47.225Z,21.23
2022-08-19T03:49:14.546Z,21.25
2022-08-19T03:51:43.086Z,21.29
2022-08-19T03:54:13.890Z,21.29
2022-08-19T03:56:42.975Z,21.28
2022-08-19T03:59:12.649Z,21.30
2022-08-19T04:01:39.240Z,21.31
2022-08-19T04:04:06.544Z,21.33
2022-08-19T04:06:36.266Z,21.33
2022-08-19T04:09:09.271Z,21.31
2022-08-19T04:11:44.937Z,21.27
2022-08-19T04:14:21.381Z,21.24
2022-08-19T04:16:49.283Z,21.26
2022-08-19T04:19:17.470Z,21.24
2022-08-19T04:21:46.764Z,21.25
2022-08-19T04:24:13.967Z,21.27
2022-08-19T04:26:40.804Z,21.28
2022-08-19T04:29:23.010Z,21.24
2022-08-19T04:31:50.286Z,21.20
2022-08-19T04:34:23.402Z,21.14
2022-08-19T04:36:53.680Z,21.14
2022-08-19T04:39:23.280Z,21.11
2022-08-19T04:42:08.416Z,21.09
2022-08-19T04:44:39.894Z,21.08
2022-08-19T04:47:13.282Z,21.07
2022-08-19T04:49:39.860Z,21.05
2022-08-19T04:52:06.409Z,21.05
2022-08-19T04:54:38.607Z,21.04
2022-08-19T04:57:08.411Z,21.03
2022-08-19T04:59:35.803Z,21.13
2022-08-19T05:02:02.765Z,21.58
2022-08-19T05:04:33.137Z,21.93
2022-08-19T05:07:01.951Z,22.26
2022-08-19T05:09:55.549Z,22.50
2022-08-19T05:12:16.961Z,22.72
2022-08-19T05:14:44.228Z,22.83
2022-08-19T05:17:27.209Z,23.01
2022-08-19T05:20:14.271Z,23.17
2022-08-19T05:22:41.924Z,23.32
2022-08-19T05:25:13.871Z,23.37
2022-08-19T05:27:41.539Z,23.47
2022-08-19T05:30:08.613Z,23.57
2022-08-19T05:32:35.321Z,23.63
2022-08-19T05:35:02.438Z,23.75
2022-08-19T05:37:29.158Z,23.90
2022-08-19T05:39:56.256Z,24.05
2022-08-19T05:42:24.185Z,24.16
2022-08-19T05:44:52.082Z,24.30
2022-08-19T05:47:20.869Z,24.41
2022-08-19T05:49:48.479Z,24.47
2022-08-19T05:52:19.570Z,24.45
2022-08-19T05:54:55.559Z,24.53
2022-08-19T05:57:22.954Z,24.55
2022-08-19T05:59:52.749Z,24.56
2022-08-19T06:02:28.331Z,24.46
2022-08-19T06:04:54.997Z,24.27
2022-08-19T06:07:21.779Z,23.97
2022-08-19T06:09:59.945Z,23.73
2022-08-19T06:12:34.141Z,23.74
2022-08-19T06:15:03.056Z,23.68
2022-08-19T06:17:31.806Z,23.64
2022-08-19T06:19:59.547Z,23.48
2022-08-19T06:22:27.045Z,23.46
2022-08-19T06:24:55.108Z,23.36
2022-08-19T06:27:22.742Z,23.50
2022-08-19T06:29:49.592Z,23.45
2022-08-19T06:32:19.398Z,23.38
2022-08-19T06:34:46.145Z,23.51
2022-08-19T06:37:12.883Z,23.45
2022-08-19T06:39:42.153Z,23.42
2022-08-19T06:42:12.453Z,23.49
2022-08-19T06:44:43.070Z,23.49
2022-08-19T06:47:14.617Z,23.50
2022-08-19T06:49:42.281Z,23.61
2022-08-19T06:52:09.712Z,23.63
2022-08-19T06:54:55.418Z,23.68
2022-08-19T06:57:25.344Z,23.78
2022-08-19T06:59:52.660Z,23.81
2022-08-19T07:02:19.889Z,23.83
2022-08-19T07:04:46.520Z,23.88
2022-08-19T07:07:20.306Z,23.93
2022-08-19T07:09:51.835Z,24.01
2022-08-19T07:12:28.393Z,24.11
2022-08-19T07:14:56.821Z,24.24
2022-08-19T07:17:24.546Z,24.45
2022-08-19T07:19:51.527Z,24.51
2022-08-19T07:22:24.404Z,24.51
2022-08-19T07:24:52.263Z,24.63
2022-08-19T07:27:24.714Z,24.69
2022-08-19T07:29:55.993Z,24.79
2022-08-19T07:32:23.893Z,24.86
2022-08-19T07:34:50.458Z,25.00
2022-08-19T07:37:17.193Z,25.07
2022-08-19T07:39:43.821Z,25.18
2022-08-19T07:42:13.342Z,25.25
2022-08-19T07:47:49.299Z,25.36
2022-08-19T07:50:00.836Z,25.47
2022-08-19T07:52:27.532Z,25.67
2022-08-19T07:54:54.070Z,25.86
2022-08-19T07:57:20.666Z,25.80
2022-08-19T07:59:47.250Z,25.69
2022-08-19T08:02:13.943Z,25.79
2022-08-19T08:04:59.099Z,25.67
2022-08-19T08:07:46.353Z,25.60
2022-08-19T08:10:21.020Z,25.56
2022-08-19T08:12:58.373Z,25.51
2022-08-19T08:15:38.701Z,25.50
2022-08-19T08:18:08.836Z,25.56
2022-08-19T08:20:36.096Z,25.58
2022-08-19T08:23:21.605Z,25.61
2022-08-19T08:25:50.093Z,25.75
2022-08-19T08:28:20.123Z,25.89
2022-08-19T08:30:50.669Z,25.96
2022-08-19T08:33:32.819Z,26.01
2022-08-19T08:36:12.090Z,26.08
2022-08-19T08:38:40.958Z,26.11
2022-08-19T08:41:55.420Z,26.17
2022-08-19T08:44:48.078Z,26.23
2022-08-19T08:47:19.194Z,26.26
2022-08-19T08:49:57.843Z,26.23
2022-08-19T08:52:36.339Z,26.26
2022-08-19T08:55:20.474Z,26.43
2022-08-19T08:57:49.996Z,26.54
2022-08-19T09:00:22.242Z,26.62
2022-08-19T09:02:50.575Z,26.78
2022-08-19T09:05:22.635Z,27.02
2022-08-19T09:08:06.457Z,27.21
2022-08-19T09:10:44.981Z,27.14
2022-08-19T09:13:37.869Z,26.90
2022-08-19T09:16:14.043Z,26.88
2022-08-19T09:18:50.068Z,26.93
2022-08-19T09:21:17.187Z,26.97
2022-08-19T09:23:44.324Z,26.99
2022-08-19T09:26:14.552Z,27.06
2022-08-19T09:28:45.114Z,27.03
2022-08-19T09:31:18.412Z,26.92
2022-08-19T09:33:45.235Z,26.93
2022-08-19T09:36:21.772Z,26.97
2022-08-19T09:39:02.405Z,27.06
2022-08-19T09:41:29.160Z,26.99
2022-08-19T09:43:58.158Z,26.92
2022-08-19T09:46:28.417Z,26.92
2022-08-19T09:49:06.021Z,26.88
2022-08-19T09:51:35.118Z,26.84
2022-08-19T09:54:05.901Z,26.71
2022-08-19T09:56:34.137Z,26.66
2022-08-19T09:59:03.053Z,26.61
2022-08-19T10:01:31.869Z,26.68
2022-08-19T10:04:01.066Z,26.52
2022-08-19T10:06:44.018Z,26.38
2022-08-19T10:09:13.917Z,26.27
2022-08-19T10:11:47.996Z,26.27
2022-08-19T10:14:23.394Z,26.30
2022-08-19T10:16:50.575Z,26.31
2022-08-19T10:19:26.143Z,26.37
2022-08-19T10:21:53.547Z,26.48
2022-08-19T10:24:21.640Z,26.55
2022-08-19T10:26:55.783Z,26.62
2022-08-19T10:29:33.049Z,26.61
2022-08-19T10:32:02.814Z,26.62
2022-08-19T10:34:30.854Z,26.69
2022-08-19T10:37:00.477Z,26.62
2022-08-19T10:39:32.700Z,26.65
2022-08-19T10:42:11.542Z,26.66
2022-08-19T10:44:38.307Z,26.83
2022-08-19T10:47:05.412Z,26.77
2022-08-19T10:50:03.447Z,26.78
2022-08-19T10:52:38.984Z,26.74
2022-08-19T10:55:29.278Z,26.67
2022-08-19T10:58:02.455Z,26.63
2022-08-19T11:00:31.837Z,26.58
2022-08-19T11:02:58.517Z,26.48
2022-08-19T11:05:25.287Z,26.46
2022-08-19T11:07:52.749Z,26.51
2022-08-19T11:10:21.813Z,26.46
2022-08-19T11:12:49.197Z,26.55
2022-08-19T11:15:16.328Z,26.66
2022-08-19T11:17:44.473Z,26.75
2022-08-19T11:20:15.896Z,26.86
2022-08-19T11:22:43.421Z,26.87
2022-08-19T11:25:12.002Z,26.87
2022-08-19T11:27:44.274Z,26.78
2022-08-19T11:30:13.451Z,26.84
2022-08-19T11:32:44.512Z,26.99
2022-08-19T11:35:14.199Z,27.00
2022-08-19T11:37:41.657Z,27.12
2022-08-19T11:40:09.068Z,27.38
2022-08-19T11:42:54.141Z,27.28
2022-08-19T11:45:20.714Z,27.22
2022-08-19T11:47:48.195Z,27.24
2022-08-19T11:50:16.722Z,27.37
2022-08-19T11:52:45.132Z,27.44
2022-08-19T11:55:14.091Z,27.55
2022-08-19T11:57:42.267Z,27.45
2022-08-19T12:00:11.042Z,27.22
2022-08-19T12:02:37.686Z,27.25
2022-08-19T12:05:06.932Z,27.54
2022-08-19T12:07:35.948Z,27.70
2022-08-19T12:10:02.548Z,27.65
2022-08-19T12:12:30.411Z,27.76
2022-08-19T12:14:59.203Z,27.77
2022-08-19T12:17:27.393Z,27.77
2022-08-19T12:19:54.857Z,27.66
2022-08-19T12:22:22.344Z,27.53
2022-08-19T12:24:51.175Z,27.58
2022-08-19T12:27:31.971Z,27.70
2022-08-19T12:30:07.408Z,27.86
2022-08-19T12:32:34.064Z,27.92
2022-08-19T12:35:00.707Z,28.07
2022-08-19T12:37:27.454Z,28.21
2022-08-19T12:39:54.108Z,28.34
2022-08-19T12:42:23.008Z,28.33
2022-08-19T12:44:49.623Z,28.01
2022-08-19T12:47:16.314Z,27.86
2022-08-19T12:49:53.867Z,27.85
2022-08-19T12:52:25.937Z,27.99
2022-08-19T12:54:55.319Z,28.12
2022-08-19T12:57:32.078Z,28.21
2022-08-19T13:00:01.337Z,28.21
2022-08-19T13:02:28.115Z,28.15
2022-08-19T13:04:54.851Z,28.09
2022-08-19T13:07:21.411Z,28.11
2022-08-19T13:09:48.075Z,28.11
2022-08-19T13:12:14.629Z,28.01
2022-08-19T13:14:44.643Z,28.17
2022-08-19T13:17:12.720Z,28.37
2022-08-19T13:19:40.989Z,28.42
2022-08-19T13:22:13.147Z,28.57
2022-08-19T13:24:46.935Z,28.77
2022-08-19T13:27:13.884Z,28.52
2022-08-19T13:30:00.641Z,28.28
2022-08-19T13:32:46.015Z,28.13
2022-08-19T13:35:16.738Z,28.16
2022-08-19T13:37:44.264Z,28.05
2022-08-19T13:40:24.815Z,27.78
2022-08-19T13:42:53.599Z,27.56
2022-08-19T13:45:24.196Z,27.47
2022-08-19T13:47:55.838Z,27.62
2022-08-19T13:50:28.653Z,27.97
2022-08-19T13:52:57.081Z,28.27
2022-08-19T13:55:25.378Z,28.48
2022-08-19T13:57:56.927Z,28.64
2022-08-19T14:00:27.373Z,28.48
2022-08-19T14:02:56.866Z,28.02
2022-08-19T14:05:25.341Z,27.62
2022-08-19T14:07:52.075Z,27.36
2022-08-19T14:10:19.752Z,27.26
2022-08-19T14:12:47.305Z,27.17
2022-08-19T14:15:15.826Z,27.18
2022-08-19T14:17:44.939Z,27.12
2022-08-19T14:20:18.413Z,27.18
2022-08-19T14:22:47.476Z,27.04
2022-08-19T14:25:19.265Z,26.83
2022-08-19T14:27:45.972Z,26.74
2022-08-19T14:30:15.564Z,27.25
2022-08-19T14:32:44.404Z,27.61
2022-08-19T14:35:13.363Z,28.01
2022-08-19T14:37:45.367Z,28.22
2022-08-19T14:40:15.283Z,28.85
2022-08-19T14:42:42.883Z,29.55
2022-08-19T14:45:11.003Z,29.80
2022-08-19T14:47:49.925Z,30.18
2022-08-19T14:50:18.265Z,30.51
2022-08-19T14:52:48.780Z,30.67
2022-08-19T14:55:17.474Z,30.75
2022-08-19T14:57:44.789Z,30.75
2022-08-19T15:00:14.199Z,30.41
2022-08-19T15:02:46.704Z,30.44
2022-08-19T15:05:13.942Z,30.55
2022-08-19T15:07:41.854Z,30.81
2022-08-19T15:10:10.613Z,30.81
2022-08-19T15:12:41.231Z,30.60
2022-08-19T15:15:14.186Z,30.41
2022-08-19T15:17:46.107Z,30.34
2022-08-19T15:20:18.187Z,30.25
2022-08-19T15:22:44.929Z,30.13
2022-08-19T15:25:13.510Z,30.39
2022-08-19T15:27:41.532Z,30.50
2022-08-19T15:30:10.568Z,30.43
2022-08-19T15:32:38.970Z,30.41
2022-08-19T15:35:07.322Z,30.28
2022-08-19T15:37:36.944Z,30.09
2022-08-19T15:40:06.050Z,30.20
2022-08-19T15:42:33.106Z,30.15
2022-08-19T15:45:01.407Z,30.17
2022-08-19T15:47:34.705Z,30.04
2022-08-19T15:50:12.454Z,29.97
2022-08-19T15:52:49.521Z,30.31
2022-08-19T15:55:33.118Z,30.67
2022-08-19T15:58:28.605Z,30.82
2022-08-19T16:01:24.617Z,31.05
2022-08-19T16:04:14.960Z,31.43
2022-08-19T16:06:53.021Z,31.62
2022-08-19T16:09:26.975Z,31.24
2022-08-19T16:12:01.841Z,31.14
2022-08-19T16:14:30.719Z,31.38
2022-08-19T16:16:57.537Z,31.40
2022-08-19T16:19:25.151Z,31.62
2022-08-19T16:21:54.224Z,31.48
2022-08-19T16:24:24.567Z,31.70
2022-08-19T16:26:51.306Z,31.70
2022-08-19T16:29:33.388Z,31.58
2022-08-19T16:32:03.521Z,31.38
2022-08-19T16:34:30.796Z,30.41
2022-08-19T16:36:57.690Z,29.32
2022-08-19T16:39:24.420Z,28.54
2022-08-19T16:41:51.658Z,28.32
2022-08-19T16:44:21.066Z,27.86
2022-08-19T16:46:57.297Z,27.52
2022-08-19T16:49:53.778Z,27.65
2022-08-19T16:52:19.177Z,27.52
2022-08-19T16:54:45.834Z,27.35
2022-08-19T16:57:13.079Z,27.34
2022-08-19T16:59:42.579Z,27.24
2022-08-19T17:02:19.670Z,26.99
2022-08-19T17:04:57.591Z,26.78
2022-08-19T17:07:27.052Z,26.61
2022-08-19T17:09:53.620Z,26.50
2022-08-19T17:12:21.984Z,26.38
2022-08-19T17:14:49.132Z,26.26
2022-08-19T17:17:16.033Z,26.05
2022-08-19T17:19:44.595Z,25.92
2022-08-19T17:22:12.974Z,25.79
2022-08-19T17:24:40.512Z,25.83
2022-08-19T17:27:07.555Z,25.88
2022-08-19T17:29:34.725Z,25.87
2022-08-19T17:32:02.109Z,25.72
2022-08-19T17:34:28.962Z,25.65
2022-08-19T17:36:57.133Z,25.58
2022-08-19T17:39:24.225Z,25.54
2022-08-19T17:41:51.286Z,25.45
2022-08-19T17:44:18.999Z,25.39
2022-08-19T17:46:46.696Z,25.32
2022-08-19T17:49:13.632Z,25.22
2022-08-19T17:51:45.957Z,25.13
2022-08-19T17:54:15.735Z,25.15
2022-08-19T17:56:43.585Z,25.11
2022-08-19T17:59:11.777Z,25.06
2022-08-19T18:01:53.704Z,25.08
2022-08-19T18:04:25.496Z,25.03
2022-08-19T18:06:54.420Z,24.97
2022-08-19T18:09:27.292Z,24.90
2022-08-19T18:11:55.492Z,24.90
2022-08-19T18:14:32.163Z,24.92
2022-08-19T18:17:02.872Z,24.88
2022-08-19T18:19:34.203Z,24.86
2022-08-19T18:22:08.759Z,24.89
2022-08-19T18:24:38.962Z,24.87
2022-08-19T18:27:06.963Z,24.77
2022-08-19T18:29:34.127Z,24.66
2022-08-19T18:32:00.699Z,24.59
2022-08-19T18:34:27.281Z,24.54
2022-08-19T18:36:54.322Z,24.51
2022-08-19T18:39:39.716Z,24.44
2022-08-19T18:42:33.009Z,24.44
2022-08-19T18:45:18.205Z,24.37
2022-08-19T18:48:03.405Z,24.34
2022-08-19T18:50:29.980Z,24.32
2022-08-19T18:52:56.545Z,24.30
2022-08-19T18:55:23.603Z,24.29
2022-08-19T18:57:52.096Z,24.22
2022-08-19T19:00:20.885Z,24.20
2022-08-19T19:02:47.439Z,24.20
2022-08-19T19:05:14.818Z,24.24
2022-08-19T19:07:42.440Z,24.23
2022-08-19T19:10:09.836Z,24.21
2022-08-19T19:12:40.700Z,24.19
2022-08-19T19:15:07.660Z,24.21
2022-08-19T19:17:34.278Z,24.21
2022-08-19T19:20:00.942Z,24.19
2022-08-19T19:22:27.610Z,24.15
2022-08-19T19:24:54.590Z,24.12
2022-08-19T19:27:21.815Z,24.09
2022-08-19T19:29:52.514Z,24.04
2022-08-19T19:32:29.689Z,24.02
2022-08-19T19:34:56.567Z,24.03
2022-08-19T19:37:23.266Z,24.01
2022-08-19T19:39:49.872Z,24.00
2022-08-19T19:42:21.194Z,23.98
2022-08-19T19:44:50.446Z,23.96
2022-08-19T19:47:19.039Z,23.94
2022-08-19T19:50:12.647Z,23.93
2022-08-19T19:52:34.233Z,23.93
2022-08-19T19:55:01.594Z,23.88
2022-08-19T19:57:30.364Z,23.87
2022-08-19T19:59:57.075Z,23.82
2022-08-19T20:02:25.269Z,23.82
2022-08-19T20:04:52.745Z,23.81
2022-08-19T20:07:39.480Z,23.79
2022-08-19T20:10:06.327Z,23.79
2022-08-19T20:12:33.008Z,23.76
2022-08-19T20:14:59.603Z,23.75
2022-08-19T20:17:26.195Z,23.74
2022-08-19T20:19:54.238Z,23.71
2022-08-19T20:22:20.901Z,23.63
2022-08-19T20:24:48.403Z,23.58
2022-08-19T20:27:14.998Z,23.54
2022-08-19T20:29:44.530Z,23.48
2022-08-19T20:32:12.695Z,23.44
2022-08-19T20:34:40.869Z,23.40
2022-08-19T20:37:10.452Z,23.34
2022-08-19T20:39:37.888Z,23.27
2022-08-19T20:42:04.634Z,23.22
2022-08-19T20:44:31.232Z,23.18
2022-08-19T20:47:02.962Z,23.16
2022-08-19T20:49:30.486Z,23.12
2022-08-19T20:51:58.419Z,23.07
2022-08-19T20:54:25.452Z,23.04
2022-08-19T20:56:52.897Z,23.05
2022-08-19T20:59:20.435Z,23.03
2022-08-19T21:01:48.508Z,23.02
2022-08-19T21:04:15.157Z,23.02
2022-08-19T21:06:45.376Z,23.00
2022-08-19T21:09:13.566Z,22.99
2022-08-19T21:11:40.636Z,22.98
2022-08-19T21:14:07.379Z,22.97
2022-08-19T21:16:33.990Z,22.96
2022-08-19T21:19:01.033Z,22.95
2022-08-19T21:21:27.900Z,22.93
2022-08-19T21:23:54.460Z,22.91
2022-08-19T21:26:21.114Z,22.88
2022-08-19T21:28:47.751Z,22.86
2022-08-19T21:31:15.821Z,22.84
2022-08-19T21:33:42.618Z,22.85
2022-08-19T21:36:09.379Z,22.83
2022-08-19T21:38:36.163Z,22.81
2022-08-19T21:41:05.991Z,22.79
2022-08-19T21:43:33.675Z,22.78
2022-08-19T21:46:00.212Z,22.76
2022-08-19T21:48:26.811Z,22.75
2022-08-19T21:50:53.455Z,22.70
2022-08-19T21:53:23.004Z,22.68
2022-08-19T21:55:53.512Z,22.65
2022-08-19T21:58:30.149Z,22.62
2022-08-19T22:00:58.769Z,22.62
2022-08-19T22:03:25.929Z,22.59
2022-08-19T22:05:52.759Z,22.59
2022-08-19T22:08:19.375Z,22.61
2022-08-19T22:10:46.545Z,22.59
2022-08-19T22:13:13.500Z,22.50
2022-08-19T22:15:42.257Z,22.46
2022-08-19T22:18:08.895Z,22.40
2022-08-19T22:20:35.465Z,22.33
2022-08-19T22:23:06.066Z,22.32
2022-08-19T22:25:40.384Z,22.29
2022-08-19T22:28:10.978Z,22.27
2022-08-19T22:30:41.651Z,22.22
2022-08-19T22:33:11.657Z,22.19
2022-08-19T22:35:40.596Z,22.15
2022-08-19T22:38:08.530Z,22.13
2022-08-19T22:40:39.529Z,22.09
2022-08-19T22:43:15.637Z,22.06
2022-08-19T22:45:43.110Z,22.07
2022-08-19T22:48:12.893Z,22.07
2022-08-19T22:50:42.771Z,22.13
2022-08-19T22:53:10.943Z,22.13
2022-08-19T22:55:38.971Z,22.15
2022-08-19T22:58:06.020Z,22.17
2022-08-19T23:00:33.210Z,22.17
2022-08-19T23:03:01.582Z,22.17
2022-08-19T23:05:29.660Z,22.20
2022-08-19T23:07:58.033Z,22.21
2022-08-19T23:10:27.991Z,22.21
2022-08-19T23:12:59.396Z,22.18
2022-08-19T23:15:31.713Z,22.13
2022-08-19T23:18:01.103Z,22.13
2022-08-19T23:20:31.064Z,22.08
2022-08-19T23:22:57.750Z,22.03
2022-08-19T23:25:28.594Z,22.00
2022-08-19T23:28:15.150Z,22.03
2022-08-19T23:30:45.079Z,21.98
2022-08-19T23:33:25.257Z,21.91
2022-08-19T23:35:58.498Z,21.88
2022-08-19T23:38:27.686Z,21.88
2022-08-19T23:40:56.783Z,21.92
2022-08-19T23:43:25.252Z,21.93
2022-08-19T23:45:57.328Z,21.90
2022-08-19T23:48:25.385Z,21.90
2022-08-19T23:50:56.403Z,21.90
2022-08-19T23:53:23.125Z,21.88
2022-08-19T23:55:50.165Z,21.80
2022-08-19T23:58:17.690Z,21.73
